Time,TemperatureF,DewpointF,PressureIn,WindDirection,WindDirectionDegrees,WindSpeedMPH,WindSpeedGustMPH,Humidity,HourlyPrecipIn,Conditions,Clouds,dailyrainin,SoftwareType,DateUTC
2015-06-30 00:40:00,98.8,50.0,29.67,WNW,299,2.0,20.0,19,0.00,,,0.00,weatherlink.com 1.10,2015-06-29 21:40:00,
2015-06-30 00:55:00,97.7,53.0,29.68,West,264,11.0,18.0,22,0.00,,,0.00,weatherlink.com 1.10,2015-06-29 21:55:00,
2015-06-30 01:10:00,97.2,52.0,29.67,WSW,249,10.0,19.0,22,0.00,,,0.00,weatherlink.com 1.10,2015-06-29 22:10:00,
2015-06-30 01:25:00,96.9,53.0,29.67,West,280,6.0,17.0,23,0.00,,,0.00,weatherlink.com 1.10,2015-06-29 22:25:00,
2015-06-30 01:40:00,96.5,53.0,29.67,NW,308,8.0,13.0,23,0.00,,,0.00,weatherlink.com 1.10,2015-06-29 22:40:00,
2015-06-30 01:55:00,96.2,53.0,29.67,West,276,14.0,23.0,23,0.00,,,0.00,weatherlink.com 1.10,2015-06-29 22:55:00,
2015-06-30 02:10:00,96.0,53.0,29.67,WNW,283,10.0,20.0,23,0.00,,,0.00,weatherlink.com 1.10,2015-06-29 23:10:00,
2015-06-30 02:25:00,95.7,52.0,29.67,WSW,256,13.0,23.0,23,0.00,,,0.00,weatherlink.com 1.10,2015-06-29 23:25:00,
2015-06-30 02:40:00,95.6,53.0,29.66,West,278,6.0,15.0,24,0.00,,,0.00,weatherlink.com 1.10,2015-06-29 23:40:00,
2015-06-30 02:56:00,95.3,52.0,29.66,NW,313,10.0,16.0,23,0.00,,,0.00,weatherlink.com 1.10,2015-06-29 23:56:00,
2015-06-30 03:11:00,95.1,52.0,29.66,NW,314,9.0,19.0,23,0.00,,,0.00,weatherlink.com 1.10,2015-06-30 00:11:00,
2015-06-30 03:26:00,94.9,52.0,29.66,WNW,285,12.0,20.0,23,0.00,,,0.00,weatherlink.com 1.10,2015-06-30 00:26:00,
2015-06-30 03:41:00,94.6,53.0,29.66,West,281,5.0,16.0,24,0.00,,,0.00,weatherlink.com 1.10,2015-06-30 00:41:00,
2015-06-30 03:56:00,93.9,52.0,29.66,NW,310,5.0,16.0,24,0.00,,,0.00,weatherlink.com 1.10,2015-06-30 00:56:00,
2015-06-30 04:11:00,93.6,53.0,29.67,WNW,291,8.0,20.0,25,0.00,,,0.00,weatherlink.com 1.10,2015-06-30 01:11:00,
2015-06-30 04:26:00,93.6,52.0,29.67,West,272,13.0,21.0,24,0.00,,,0.00,weatherlink.com 1.10,2015-06-30 01:26:00,
2015-06-30 04:41:00,93.4,53.0,29.67,West,272,6.0,17.0,25,0.00,,,0.00,weatherlink.com 1.10,2015-06-30 01:41:00,
2015-06-30 04:56:00,93.0,53.0,29.66,NW,305,8.0,21.0,26,0.00,,,0.00,weatherlink.com 1.10,2015-06-30 01:56:00,
2015-06-30 05:11:00,92.7,52.0,29.66,WNW,301,15.0,26.0,25,0.00,,,0.00,weatherlink.com 1.10,2015-06-30 02:11:00,
2015-06-30 05:26:00,92.8,53.0,29.66,WSW,251,8.0,21.0,26,0.00,,,0.00,weatherlink.com 1.10,2015-06-30 02:26:00,
2015-06-30 05:41:00,92.4,54.0,29.68,WNW,295,5.0,18.0,27,0.00,,,0.00,weatherlink.com 1.10,2015-06-30 02:41:00,
2015-06-30 05:56:00,92.0,54.0,29.69,WNW,296,5.0,14.0,27,0.00,,,0.00,weatherlink.com 1.10,2015-06-30 02:56:00,
2015-06-30 06:11:00,92.0,54.0,29.70,West,270,8.0,15.0,27,0.00,,,0.00,weatherlink.com 1.10,2015-06-30 03:11:00,
2015-06-30 06:26:00,92.5,53.0,29.70,WNW,287,10.0,17.0,26,0.00,,,0.00,weatherlink.com 1.10,2015-06-30 03:26:00,
2015-06-30 06:41:00,93.4,53.0,29.71,West,273,10.0,13.0,25,0.00,,,0.00,weatherlink.com 1.10,2015-06-30 03:41:00,
2015-06-30 06:56:00,93.9,53.0,29.72,WNW,287,7.0,14.0,25,0.00,,,0.00,weatherlink.com 1.10,2015-06-30 03:56:00,
2015-06-30 07:11:00,95.1,53.0,29.73,WNW,295,5.0,12.0,24,0.00,,,0.00,weatherlink.com 1.10,2015-06-30 04:11:00,
2015-06-30 07:26:00,95.8,52.0,29.73,West,271,8.0,11.0,23,0.00,,,0.00,weatherlink.com 1.10,2015-06-30 04:26:00,
2015-06-30 07:41:00,97.0,53.0,29.74,WNW,284,6.0,10.0,23,0.00,,,0.00,weatherlink.com 1.10,2015-06-30 04:41:00,
2015-06-30 07:56:00,97.3,54.0,29.74,NW,324,9.0,14.0,23,0.00,,,0.00,weatherlink.com 1.10,2015-06-30 04:56:00,
2015-06-30 08:11:00,97.8,54.0,29.74,NW,306,8.0,14.0,23,0.00,,,0.00,weatherlink.com 1.10,2015-06-30 05:11:00,
2015-06-30 08:26:00,98.8,53.0,29.75,NW,310,7.0,12.0,21,0.00,,,0.00,weatherlink.com 1.10,2015-06-30 05:26:00,
2015-06-30 08:41:00,100.6,51.0,29.75,North,359,5.0,9.0,19,0.00,,,0.00,weatherlink.com 1.10,2015-06-30 05:41:00,
2015-06-30 08:56:00,101.9,51.0,29.75,WNW,303,6.0,12.0,18,0.00,,,0.00,weatherlink.com 1.10,2015-06-30 05:56:00,
2015-06-30 09:11:00,102.8,52.0,29.75,WNW,298,3.0,10.0,18,0.00,,,0.00,weatherlink.com 1.10,2015-06-30 06:11:00,
2015-06-30 09:26:00,103.2,52.0,29.75,NW,321,11.0,15.0,18,0.00,,,0.00,weatherlink.com 1.10,2015-06-30 06:26:00,
2015-06-30 09:41:00,103.9,53.0,29.75,WNW,303,8.0,15.0,18,0.00,,,0.00,weatherlink.com 1.10,2015-06-30 06:41:00,
2015-06-30 09:56:00,105.1,50.0,29.74,NW,317,13.0,19.0,16,0.00,,,0.00,weatherlink.com 1.10,2015-06-30 06:56:00,
2015-06-30 10:11:00,105.0,52.0,29.75,WNW,298,4.0,17.0,17,0.00,,,0.00,weatherlink.com 1.10,2015-06-30 07:11:00,
2015-06-30 10:26:00,105.9,51.0,29.74,WNW,294,17.0,20.0,16,0.00,,,0.00,weatherlink.com 1.10,2015-06-30 07:26:00,
2015-06-30 10:41:00,106.3,53.0,29.74,West,273,6.0,22.0,17,0.00,,,0.00,weatherlink.com 1.10,2015-06-30 07:41:00,
2015-06-30 10:56:00,106.7,50.0,29.74,NW,320,8.0,21.0,15,0.00,,,0.00,weatherlink.com 1.10,2015-06-30 07:56:00,
2015-06-30 11:11:00,107.3,54.0,29.74,West,266,9.0,16.0,17,0.00,,,0.00,weatherlink.com 1.10,2015-06-30 08:11:00,
2015-06-30 11:27:00,108.2,53.0,29.73,WSW,247,8.0,12.0,16,0.00,,,0.00,weatherlink.com 1.10,2015-06-30 08:27:00,
2015-06-30 11:41:00,108.3,51.0,29.73,West,266,8.0,18.0,15,0.00,,,0.00,weatherlink.com 1.10,2015-06-30 08:41:00,
2015-06-30 11:57:00,108.7,52.0,29.73,WSW,253,18.0,18.0,15,0.00,,,0.00,weatherlink.com 1.10,2015-06-30 08:57:00,
2015-06-30 12:12:00,108.8,52.0,29.73,WNW,287,11.0,15.0,15,0.00,,,0.00,weatherlink.com 1.10,2015-06-30 09:12:00,
2015-06-30 12:27:00,109.2,50.0,29.72,SW,231,6.0,18.0,14,0.00,,,0.00,weatherlink.com 1.10,2015-06-30 09:27:00,
2015-06-30 12:42:00,109.3,52.0,29.72,WSW,247,12.0,15.0,15,0.00,,,0.00,weatherlink.com 1.10,2015-06-30 09:42:00,
2015-06-30 12:57:00,110.0,53.0,29.71,WSW,252,6.0,13.0,15,0.00,,,0.00,weatherlink.com 1.10,2015-06-30 09:57:00,
2015-06-30 13:12:00,110.6,51.0,29.71,West,260,10.0,15.0,14,0.00,,,0.00,weatherlink.com 1.10,2015-06-30 10:12:00,
2015-06-30 13:27:00,111.0,50.0,29.70,WNW,287,5.0,15.0,13,0.00,,,0.00,weatherlink.com 1.10,2015-06-30 10:27:00,
2015-06-30 13:42:00,111.2,50.0,29.70,West,269,0.0,12.0,13,0.00,,,0.00,weatherlink.com 1.10,2015-06-30 10:42:00,
2015-06-30 13:57:00,111.3,52.0,29.69,West,276,4.0,14.0,14,0.00,,,0.00,weatherlink.com 1.10,2015-06-30 10:57:00,
2015-06-30 14:12:00,111.4,43.0,29.69,WSW,245,1.0,18.0,10,0.00,,,0.00,weatherlink.com 1.10,2015-06-30 11:12:00,
2015-06-30 14:27:00,111.3,48.0,29.69,SW,233,7.0,16.0,12,0.00,,,0.00,weatherlink.com 1.10,2015-06-30 11:27:00,
2015-06-30 14:42:00,111.4,52.0,29.69,West,270,5.0,15.0,14,0.00,,,0.00,weatherlink.com 1.10,2015-06-30 11:42:00,
2015-06-30 14:57:00,111.3,48.0,29.69,West,278,7.0,12.0,12,0.00,,,0.00,weatherlink.com 1.10,2015-06-30 11:57:00,
2015-06-30 15:12:00,110.9,45.0,29.68,West,269,7.0,17.0,11,0.00,,,0.00,weatherlink.com 1.10,2015-06-30 12:12:00,
2015-06-30 15:27:00,110.3,45.0,29.68,WNW,300,2.0,17.0,11,0.00,,,0.00,weatherlink.com 1.10,2015-06-30 12:27:00,
2015-06-30 15:42:00,109.7,47.0,29.68,WNW,285,9.0,18.0,12,0.00,,,0.00,weatherlink.com 1.10,2015-06-30 12:42:00,
2015-06-30 15:57:00,108.4,52.0,29.68,WSW,250,4.0,12.0,15,0.00,,,0.00,weatherlink.com 1.10,2015-06-30 12:57:00,
2015-06-30 16:12:00,107.8,51.0,29.68,West,270,11.0,16.0,15,0.00,,,0.00,weatherlink.com 1.10,2015-06-30 13:12:00,
2015-06-30 16:27:00,107.6,49.0,29.68,WSW,242,2.0,18.0,14,0.00,,,0.00,weatherlink.com 1.10,2015-06-30 13:27:00,
2015-06-30 16:42:00,107.9,47.0,29.67,West,271,7.0,15.0,13,0.00,,,0.00,weatherlink.com 1.10,2015-06-30 13:42:00,
2015-06-30 16:57:00,107.9,47.0,29.67,WNW,291,12.0,18.0,13,0.00,,,0.00,weatherlink.com 1.10,2015-06-30 13:57:00,
2015-06-30 17:12:00,107.6,47.0,29.68,West,270,8.0,19.0,13,0.00,,,0.00,weatherlink.com 1.10,2015-06-30 14:12:00,
2015-06-30 17:27:00,107.1,47.0,29.68,WNW,283,7.0,17.0,13,0.00,,,0.00,weatherlink.com 1.10,2015-06-30 14:27:00,
2015-06-30 17:42:00,106.4,48.0,29.68,WNW,283,2.0,17.0,14,0.00,,,0.00,weatherlink.com 1.10,2015-06-30 14:42:00,
2015-06-30 17:57:00,106.2,44.0,29.68,WNW,295,13.0,20.0,12,0.00,,,0.00,weatherlink.com 1.10,2015-06-30 14:57:00,
2015-06-30 18:12:00,105.5,47.0,29.68,WNW,297,7.0,15.0,14,0.00,,,0.00,weatherlink.com 1.10,2015-06-30 15:12:00,
2015-06-30 18:27:00,105.2,47.0,29.69,NW,305,8.0,22.0,14,0.00,,,0.00,weatherlink.com 1.10,2015-06-30 15:27:00,